createdAt,value
2023-03-29T00:00:40.365Z,5.11
2023-03-29T00:01:40.387Z,5.43
2023-03-29T00:02:40.418Z,2.53
2023-03-29T00:03:40.544Z,8.97
2023-03-29T00:04:40.336Z,10.26
2023-03-29T00:05:40.332Z,11.23
2023-03-29T00:06:40.291Z,4.79
2023-03-29T00:07:40.307Z,4.14
2023-03-29T00:08:40.292Z,5.11
2023-03-29T00:09:40.289Z,4.79
2023-03-29T00:10:40.256Z,11.55
2023-03-29T00:11:40.286Z,4.14
2023-03-29T00:12:40.230Z,4.79
2023-03-29T00:13:40.257Z,-0.37
2023-03-29T00:14:40.211Z,4.79
2023-03-29T00:15:40.246Z,12.52
2023-03-29T00:16:40.225Z,10.59
2023-03-29T00:17:40.210Z,5.75
2023-03-29T00:18:40.164Z,0.60
2023-03-29T00:19:40.186Z,11.23
2023-03-29T00:20:40.154Z,3.82
2023-03-29T00:21:40.160Z,10.91
2023-03-29T00:22:40.127Z,5.11
2023-03-29T00:23:40.149Z,1.88
2023-03-29T00:24:40.107Z,4.79
2023-03-29T00:25:40.123Z,8.33
2023-03-29T00:26:40.081Z,10.26
2023-03-29T00:27:40.115Z,5.11
2023-03-29T00:28:40.059Z,4.79
2023-03-29T00:29:40.066Z,5.11
2023-03-29T00:30:40.045Z,4.46
2023-03-29T00:31:40.128Z,4.79
2023-03-29T00:32:40.062Z,4.79
2023-03-29T00:33:40.046Z,4.79
2023-03-29T00:34:39.994Z,0.60
2023-03-29T00:35:40.031Z,4.79
2023-03-29T00:36:39.976Z,1.24
2023-03-29T00:37:40.027Z,0.27
2023-03-29T00:38:39.963Z,5.75
2023-03-29T00:39:39.998Z,8.01
2023-03-29T00:40:39.961Z,4.79
2023-03-29T00:41:39.941Z,4.79
2023-03-29T00:42:39.923Z,4.46
2023-03-29T00:43:39.935Z,5.11
2023-03-29T00:44:39.914Z,4.46
2023-03-29T00:45:39.911Z,4.46
2023-03-29T00:46:39.955Z,4.14
2023-03-29T00:47:40.000Z,9.94
2023-03-29T00:48:39.856Z,4.79
2023-03-29T00:49:39.883Z,-1.02
2023-03-29T00:50:39.847Z,4.79
2023-03-29T00:51:39.841Z,5.11
2023-03-29T00:52:39.818Z,8.01
2023-03-29T00:53:39.816Z,8.65
2023-03-29T00:54:39.792Z,14.78
2023-03-29T00:55:39.804Z,6.07
2023-03-29T00:56:40.157Z,4.79
2023-03-29T00:57:39.806Z,0.27
2023-03-29T00:58:39.745Z,5.11
2023-03-29T00:59:39.773Z,-0.05
2023-03-29T01:00:39.729Z,3.82
2023-03-29T01:01:39.733Z,2.21
2023-03-29T01:02:40.003Z,5.43
2023-03-29T01:03:39.751Z,5.11
2023-03-29T01:04:39.692Z,3.82
2023-03-29T01:05:39.689Z,4.46
2023-03-29T01:06:39.762Z,7.36
2023-03-29T01:07:39.684Z,5.43
2023-03-29T01:08:39.670Z,4.79
2023-03-29T01:09:39.661Z,4.46
2023-03-29T01:10:39.630Z,-1.34
2023-03-29T01:11:39.630Z,4.46
2023-03-29T01:12:39.598Z,10.91
2023-03-29T01:13:39.605Z,5.43
2023-03-29T01:14:39.585Z,9.94
2023-03-29T01:15:39.614Z,2.85
2023-03-29T01:16:39.595Z,2.85
2023-03-29T01:17:39.622Z,5.43
2023-03-29T01:18:39.535Z,4.46
2023-03-29T01:19:39.540Z,4.79
2023-03-29T01:20:39.523Z,-0.37
2023-03-29T01:21:39.546Z,4.79
2023-03-29T01:22:39.496Z,4.79
2023-03-29T01:23:39.501Z,5.11
2023-03-29T01:24:39.479Z,10.91
2023-03-29T01:25:39.478Z,0.60
2023-03-29T01:26:39.456Z,4.79
2023-03-29T01:27:39.483Z,1.24
2023-03-29T01:28:39.446Z,7.69
2023-03-29T01:29:39.450Z,0.92
2023-03-29T01:30:39.406Z,1.24
2023-03-29T01:31:39.468Z,-1.98
2023-03-29T01:32:39.453Z,4.46
2023-03-29T01:33:39.398Z,5.43
2023-03-29T01:34:39.385Z,5.11
2023-03-29T01:35:39.361Z,0.92
2023-03-29T01:36:39.362Z,4.79
2023-03-29T01:37:39.339Z,4.79
2023-03-29T01:38:39.357Z,5.75
2023-03-29T01:39:39.322Z,4.79
2023-03-29T01:40:39.320Z,-0.37
2023-03-29T01:41:39.410Z,-1.98
2023-03-29T01:42:39.312Z,-1.02
2023-03-29T01:43:39.277Z,10.59
2023-03-29T01:44:39.282Z,5.11
2023-03-29T01:45:39.327Z,4.79
2023-03-29T01:46:39.461Z,4.79
2023-03-29T01:47:39.304Z,14.13
2023-03-29T01:48:39.236Z,8.65
2023-03-29T01:49:39.221Z,0.60
2023-03-29T01:50:39.224Z,9.62
2023-03-29T01:51:39.198Z,4.79
2023-03-29T01:52:39.191Z,-1.66
2023-03-29T01:53:39.162Z,4.46
2023-03-29T01:54:39.167Z,4.79
2023-03-29T01:55:39.152Z,4.46
2023-03-29T01:56:39.231Z,4.46
2023-03-29T01:57:39.131Z,5.11
2023-03-29T01:58:39.148Z,4.46
2023-03-29T01:59:39.102Z,-0.05
2023-03-29T02:00:39.105Z,10.91
2023-03-29T02:01:39.146Z,4.79
2023-03-29T02:02:39.227Z,-1.02
2023-03-29T02:03:39.097Z,-1.98
2023-03-29T02:04:39.066Z,5.11
2023-03-29T02:05:39.134Z,-0.69
2023-03-29T02:06:39.041Z,4.79
2023-03-29T02:07:39.028Z,2.53
2023-03-29T02:08:39.043Z,6.40
2023-03-29T02:09:39.002Z,4.46
2023-03-29T02:10:39.028Z,0.60
2023-03-29T02:11:38.980Z,4.79
2023-03-29T02:12:38.983Z,9.94
2023-03-29T02:13:38.973Z,4.79
2023-03-29T02:14:38.962Z,-0.05
2023-03-29T02:15:38.971Z,7.36
2023-03-29T02:16:38.953Z,4.46
2023-03-29T02:17:39.001Z,4.79
2023-03-29T02:18:38.912Z,4.46
2023-03-29T02:19:38.902Z,0.60
2023-03-29T02:20:39.139Z,8.97
2023-03-29T02:21:38.865Z,4.79
2023-03-29T02:22:38.902Z,5.75
2023-03-29T02:23:38.860Z,8.97
2023-03-29T02:24:38.849Z,4.79
2023-03-29T02:25:38.840Z,5.11
2023-03-29T02:26:38.829Z,4.46
2023-03-29T02:27:38.827Z,-0.37
2023-03-29T02:28:38.810Z,0.27
2023-03-29T02:29:38.785Z,3.50
2023-03-29T02:30:38.807Z,9.94
2023-03-29T02:31:38.863Z,9.62
2023-03-29T02:32:38.802Z,9.62
2023-03-29T02:33:38.750Z,-1.02
2023-03-29T02:34:38.746Z,-3.27
2023-03-29T02:35:38.769Z,-2.95
2023-03-29T02:36:38.758Z,4.14
2023-03-29T02:37:38.697Z,6.40
2023-03-29T02:38:38.725Z,4.46
2023-03-29T02:39:38.677Z,5.75
2023-03-29T02:40:38.682Z,8.97
2023-03-29T02:41:38.650Z,4.79
2023-03-29T02:42:38.686Z,11.55
2023-03-29T02:43:38.634Z,9.30
2023-03-29T02:44:38.655Z,4.79
2023-03-29T02:45:38.613Z,13.49
2023-03-29T02:46:38.663Z,4.79
2023-03-29T02:47:38.630Z,4.79
2023-03-29T02:48:38.615Z,4.79
2023-03-29T02:49:38.605Z,5.11
2023-03-29T02:50:38.615Z,4.79
2023-03-29T02:51:38.565Z,4.46
2023-03-29T02:52:38.584Z,11.55
2023-03-29T02:53:38.532Z,10.26
2023-03-29T02:54:38.551Z,4.79
2023-03-29T02:55:38.520Z,-0.05
2023-03-29T02:56:38.568Z,10.59
2023-03-29T02:57:38.486Z,8.65
2023-03-29T02:58:38.492Z,8.65
2023-03-29T02:59:38.469Z,8.01
2023-03-29T03:00:38.495Z,4.79
2023-03-29T03:01:38.465Z,-0.37
2023-03-29T03:02:38.539Z,4.46
2023-03-29T03:03:38.471Z,4.46
2023-03-29T03:04:38.467Z,-0.37
2023-03-29T03:05:38.414Z,0.27
2023-03-29T03:06:38.423Z,10.91
2023-03-29T03:07:38.382Z,5.11
2023-03-29T03:08:38.390Z,5.11
2023-03-29T03:09:38.364Z,5.11
2023-03-29T03:10:38.388Z,4.46
2023-03-29T03:11:38.343Z,4.46
2023-03-29T03:12:38.364Z,8.33
2023-03-29T03:13:38.324Z,2.21
2023-03-29T03:14:38.327Z,5.11
2023-03-29T03:15:38.304Z,4.46
2023-03-29T03:16:38.350Z,9.94
2023-03-29T03:17:38.327Z,4.79
2023-03-29T03:18:38.284Z,1.24
2023-03-29T03:19:38.253Z,2.53
2023-03-29T03:20:38.279Z,0.60
2023-03-29T03:21:38.245Z,4.79
2023-03-29T03:22:38.243Z,4.46
2023-03-29T03:23:38.209Z,4.46
2023-03-29T03:24:38.228Z,4.79
2023-03-29T03:25:38.207Z,5.11
2023-03-29T03:26:38.260Z,5.11
2023-03-29T03:27:38.180Z,4.14
2023-03-29T03:28:38.172Z,2.53
2023-03-29T03:29:38.156Z,4.46
2023-03-29T03:30:38.147Z,4.79
2023-03-29T03:31:38.162Z,4.79
2023-03-29T03:32:38.139Z,8.01
2023-03-29T03:33:38.115Z,4.79
2023-03-29T03:34:38.110Z,3.82
2023-03-29T03:35:38.100Z,2.85
2023-03-29T03:36:38.101Z,5.11
2023-03-29T03:37:38.067Z,4.46
2023-03-29T03:38:38.087Z,5.43
2023-03-29T03:39:38.035Z,5.11
2023-03-29T03:40:38.115Z,11.55
2023-03-29T03:41:38.017Z,-0.37
2023-03-29T03:42:38.066Z,4.79
2023-03-29T03:43:38.004Z,4.46
2023-03-29T03:44:38.011Z,4.46
2023-03-29T03:45:37.978Z,4.79
2023-03-29T03:46:38.004Z,0.92
2023-03-29T03:47:38.187Z,4.14
2023-03-29T03:48:37.980Z,5.11
2023-03-29T03:49:37.930Z,8.33
2023-03-29T03:50:37.934Z,5.11
2023-03-29T03:51:37.915Z,3.82
2023-03-29T03:52:37.932Z,4.46
2023-03-29T03:53:37.903Z,4.79
2023-03-29T03:54:37.905Z,-0.37
2023-03-29T03:55:36.866Z,0.60
2023-03-29T03:56:37.957Z,4.79
2023-03-29T03:57:37.843Z,7.04
2023-03-29T03:58:37.876Z,4.14
2023-03-29T03:59:37.821Z,4.46
2023-03-29T04:00:37.870Z,4.79
2023-03-29T04:01:37.806Z,4.46
2023-03-29T04:02:37.849Z,4.46
2023-03-29T04:03:37.901Z,-2.30
2023-03-29T04:04:37.806Z,4.79
2023-03-29T04:05:44.289Z,5.11
2023-03-29T04:06:37.764Z,4.79
2023-03-29T04:07:37.740Z,5.11
2023-03-29T04:08:37.772Z,-0.37
2023-03-29T04:09:37.732Z,4.14
2023-03-29T04:10:37.738Z,-1.34
2023-03-29T04:11:37.698Z,5.43
2023-03-29T04:12:37.716Z,4.46
2023-03-29T04:13:37.689Z,0.60
2023-03-29T04:14:37.700Z,0.60
2023-03-29T04:15:37.710Z,4.46
2023-03-29T04:16:37.665Z,4.79
2023-03-29T04:17:37.740Z,4.46
2023-03-29T04:18:37.805Z,4.79
2023-03-29T04:19:37.610Z,4.79
2023-03-29T04:20:37.643Z,5.11
2023-03-29T04:21:37.604Z,4.14
2023-03-29T04:22:37.612Z,6.40
2023-03-29T04:23:37.569Z,9.62
2023-03-29T04:24:37.585Z,5.75
2023-03-29T04:25:37.564Z,5.11
2023-03-29T04:26:37.554Z,4.79
2023-03-29T04:27:37.547Z,11.23
2023-03-29T04:28:37.534Z,4.79
2023-03-29T04:29:37.518Z,4.79
2023-03-29T04:30:37.530Z,2.85
2023-03-29T04:31:37.603Z,2.21
2023-03-29T04:32:37.551Z,5.43
2023-03-29T04:33:37.474Z,1.24
2023-03-29T04:34:37.490Z,9.94
2023-03-29T04:35:37.510Z,9.94
2023-03-29T04:36:37.421Z,4.79
2023-03-29T04:37:37.427Z,4.79
2023-03-29T04:38:37.408Z,4.79
2023-03-29T04:39:37.358Z,4.79
2023-03-29T04:40:37.374Z,5.11
2023-03-29T04:41:37.395Z,4.79
2023-03-29T04:42:37.540Z,5.11
2023-03-29T04:43:39.668Z,4.79
2023-03-29T04:44:37.404Z,1.88
2023-03-29T04:45:37.344Z,4.46
2023-03-29T04:46:37.382Z,9.62
2023-03-29T04:47:37.398Z,6.07
2023-03-29T04:48:37.340Z,8.97
2023-03-29T04:49:37.269Z,0.92
2023-03-29T04:50:37.270Z,1.24
2023-03-29T04:51:37.238Z,3.82
2023-03-29T04:52:37.251Z,1.88
2023-03-29T04:53:37.216Z,5.11
2023-03-29T04:54:37.231Z,4.14
2023-03-29T04:55:37.187Z,4.46
2023-03-29T04:56:37.214Z,7.04
2023-03-29T04:57:37.174Z,4.79
2023-03-29T04:58:37.189Z,4.14
2023-03-29T04:59:37.287Z,2.21
2023-03-29T05:00:36.157Z,-1.02
2023-03-29T05:01:37.160Z,-0.37
2023-03-29T05:02:37.141Z,3.50
2023-03-29T05:03:37.105Z,10.91
2023-03-29T05:04:37.160Z,-0.69
2023-03-29T05:05:37.087Z,5.11
2023-03-29T05:06:37.084Z,-1.98
2023-03-29T05:07:37.078Z,4.79
2023-03-29T05:08:37.063Z,1.56
2023-03-29T05:09:37.038Z,4.14
2023-03-29T05:10:37.052Z,-1.02
2023-03-29T05:11:37.017Z,4.46
2023-03-29T05:12:37.037Z,1.24
2023-03-29T05:13:36.994Z,4.79
2023-03-29T05:14:37.010Z,4.79
2023-03-29T05:15:37.408Z,4.79
2023-03-29T05:16:37.010Z,4.46
2023-03-29T05:17:37.011Z,5.11
2023-03-29T05:18:36.976Z,-1.98
2023-03-29T05:19:36.945Z,-1.02
2023-03-29T05:20:36.948Z,9.94
2023-03-29T05:21:36.925Z,4.79
2023-03-29T05:22:36.913Z,-1.98
2023-03-29T05:23:36.889Z,9.30
2023-03-29T05:24:36.912Z,4.79
2023-03-29T05:25:36.866Z,4.46
2023-03-29T05:26:36.890Z,5.11
2023-03-29T05:27:36.841Z,0.60
2023-03-29T05:28:36.858Z,5.11
2023-03-29T05:29:36.840Z,4.46
2023-03-29T05:30:36.830Z,6.07
2023-03-29T05:31:36.857Z,4.79
2023-03-29T05:32:36.963Z,4.46
2023-03-29T05:33:36.817Z,9.62
2023-03-29T05:34:36.788Z,4.46
2023-03-29T05:35:36.794Z,-0.05
2023-03-29T05:36:36.771Z,-0.05
2023-03-29T05:37:36.746Z,4.79
2023-03-29T05:38:36.781Z,4.14
2023-03-29T05:39:37.711Z,4.79
2023-03-29T05:40:36.740Z,4.46
2023-03-29T05:41:36.707Z,9.62
2023-03-29T05:42:36.708Z,5.11
2023-03-29T05:43:36.711Z,9.94
2023-03-29T05:44:36.660Z,4.14
2023-03-29T05:45:36.687Z,4.79
2023-03-29T05:46:36.641Z,2.21
2023-03-29T05:47:36.661Z,1.88
2023-03-29T05:48:36.637Z,-2.63
2023-03-29T05:49:36.640Z,3.17
2023-03-29T05:50:36.602Z,4.46
2023-03-29T05:51:36.604Z,4.79
2023-03-29T05:52:36.576Z,-2.95
2023-03-29T05:53:36.607Z,4.79
2023-03-29T05:54:36.557Z,0.92
2023-03-29T05:55:36.579Z,4.79
2023-03-29T05:56:36.546Z,11.87
2023-03-29T05:57:36.558Z,5.11
2023-03-29T05:58:36.513Z,4.79
2023-03-29T05:59:36.531Z,5.11
2023-03-29T06:00:36.496Z,0.60
2023-03-29T06:01:36.626Z,8.01
2023-03-29T06:02:36.558Z,5.11
2023-03-29T06:03:36.595Z,4.46
2023-03-29T06:04:36.672Z,0.27
2023-03-29T06:05:36.459Z,5.11
2023-03-29T06:06:36.432Z,8.97
2023-03-29T06:07:36.442Z,4.46
2023-03-29T06:08:36.413Z,5.11
2023-03-29T06:09:36.446Z,5.43
2023-03-29T06:10:36.387Z,5.11
2023-03-29T06:11:36.398Z,13.16
2023-03-29T06:12:36.369Z,5.11
2023-03-29T06:13:36.387Z,2.21
2023-03-29T06:14:36.351Z,5.43
2023-03-29T06:15:36.378Z,4.79
2023-03-29T06:16:36.396Z,5.43
2023-03-29T06:17:36.401Z,4.79
2023-03-29T06:18:36.311Z,9.62
2023-03-29T06:19:36.312Z,2.85
2023-03-29T06:20:36.298Z,5.43
2023-03-29T06:21:36.305Z,5.75
2023-03-29T06:22:36.263Z,4.79
2023-03-29T06:23:36.286Z,1.88
2023-03-29T06:24:36.240Z,10.26
2023-03-29T06:25:36.269Z,5.11
2023-03-29T06:26:36.229Z,5.11
2023-03-29T06:27:36.224Z,5.11
2023-03-29T06:28:36.200Z,5.11
2023-03-29T06:29:36.234Z,3.50
2023-03-29T06:30:36.176Z,5.11
2023-03-29T06:31:36.426Z,0.60
2023-03-29T06:32:36.225Z,5.11
2023-03-29T06:33:36.172Z,5.75
2023-03-29T06:34:38.480Z,3.17
2023-03-29T06:35:36.194Z,5.11
2023-03-29T06:36:36.119Z,9.94
2023-03-29T06:37:36.117Z,2.21
2023-03-29T06:38:36.099Z,4.79
2023-03-29T06:39:36.097Z,5.75
2023-03-29T06:40:36.074Z,5.43
2023-03-29T06:41:36.093Z,5.43
2023-03-29T06:42:36.067Z,5.43
2023-03-29T06:43:36.067Z,5.43
2023-03-29T06:44:36.030Z,5.75
2023-03-29T06:45:36.054Z,0.27
2023-03-29T06:46:36.084Z,0.27
2023-03-29T06:47:36.076Z,5.75
2023-03-29T06:48:35.993Z,10.26
2023-03-29T06:49:36.007Z,9.30
2023-03-29T06:50:35.985Z,-0.05
2023-03-29T06:51:36.006Z,6.07
2023-03-29T06:52:35.956Z,5.11
2023-03-29T06:53:35.950Z,5.75
2023-03-29T06:54:35.923Z,5.75
2023-03-29T06:55:35.940Z,1.56
2023-03-29T06:56:35.903Z,-0.37
2023-03-29T06:57:35.936Z,9.62
2023-03-29T06:58:35.887Z,0.60
2023-03-29T06:59:35.884Z,6.40
2023-03-29T07:00:35.913Z,4.79
2023-03-29T07:01:35.900Z,5.75
2023-03-29T07:02:35.884Z,11.23
2023-03-29T07:03:35.875Z,1.88
2023-03-29T07:04:35.876Z,5.43
2023-03-29T07:05:35.818Z,8.97
2023-03-29T07:06:35.790Z,5.43
2023-03-29T07:07:35.796Z,5.75
2023-03-29T07:08:35.769Z,5.43
2023-03-29T07:09:35.802Z,5.75
2023-03-29T07:10:35.748Z,5.75
2023-03-29T07:11:35.784Z,5.75
2023-03-29T07:12:35.726Z,6.07
2023-03-29T07:13:35.757Z,5.43
2023-03-29T07:14:35.706Z,5.75
2023-03-29T07:15:35.740Z,11.87
2023-03-29T07:16:35.753Z,12.20
2023-03-29T07:17:35.703Z,11.87
2023-03-29T07:18:35.662Z,5.75
2023-03-29T07:19:35.667Z,5.43
2023-03-29T07:20:35.645Z,8.65
2023-03-29T07:21:37.885Z,5.75
2023-03-29T07:22:35.625Z,6.07
2023-03-29T07:23:35.625Z,13.49
2023-03-29T07:24:35.596Z,6.40
2023-03-29T07:25:35.609Z,2.53
2023-03-29T07:26:35.593Z,5.75
2023-03-29T07:27:35.586Z,5.43
2023-03-29T07:28:35.556Z,8.33
2023-03-29T07:29:35.572Z,5.43
2023-03-29T07:30:35.540Z,6.07
2023-03-29T07:31:35.540Z,5.43
2023-03-29T07:32:35.577Z,2.85
2023-03-29T07:33:35.635Z,6.07
2023-03-29T07:34:35.487Z,2.53
2023-03-29T07:35:35.536Z,5.43
2023-03-29T07:36:35.481Z,10.59
2023-03-29T07:37:35.473Z,6.40
2023-03-29T07:38:35.446Z,0.60
2023-03-29T07:39:35.467Z,4.79
2023-03-29T07:40:35.424Z,6.72
2023-03-29T07:41:35.434Z,6.40
2023-03-29T07:42:35.415Z,6.40
2023-03-29T07:43:35.409Z,7.04
2023-03-29T07:44:35.380Z,6.40
2023-03-29T07:45:35.479Z,7.69
2023-03-29T07:46:35.357Z,7.04
2023-03-29T07:47:35.436Z,6.72
2023-03-29T07:48:35.347Z,8.65
2023-03-29T07:49:35.362Z,6.72
2023-03-29T07:50:35.316Z,6.72
2023-03-29T07:51:35.341Z,5.75
2023-03-29T07:52:35.307Z,11.23
2023-03-29T07:53:35.328Z,6.40
2023-03-29T07:54:35.273Z,0.27
2023-03-29T07:55:35.289Z,8.01
2023-03-29T07:56:35.251Z,2.53
2023-03-29T07:57:35.270Z,5.43
2023-03-29T07:58:35.228Z,7.36
2023-03-29T07:59:35.255Z,7.36
2023-03-29T08:00:35.232Z,6.40
2023-03-29T08:01:35.213Z,7.36
2023-03-29T08:02:35.197Z,6.72
2023-03-29T08:03:35.248Z,12.20
2023-03-29T08:04:35.265Z,2.21
2023-03-29T08:05:41.527Z,13.81
2023-03-29T08:06:35.141Z,7.36
2023-03-29T08:07:35.147Z,6.40
2023-03-29T08:08:35.124Z,7.36
2023-03-29T08:09:35.131Z,6.07
2023-03-29T08:10:35.111Z,5.43
2023-03-29T08:11:35.114Z,7.36
2023-03-29T08:12:35.084Z,7.04
2023-03-29T08:13:35.080Z,7.69
2023-03-29T08:14:35.053Z,8.01
2023-03-29T08:15:35.084Z,1.88
2023-03-29T08:16:35.055Z,8.01
2023-03-29T08:17:35.116Z,8.01
2023-03-29T08:18:35.112Z,8.65
2023-03-29T08:19:35.016Z,8.33
2023-03-29T08:20:34.992Z,4.46
2023-03-29T08:21:35.011Z,8.01
2023-03-29T08:22:34.970Z,6.40
2023-03-29T08:23:34.991Z,13.81
2023-03-29T08:24:34.946Z,8.33
2023-03-29T08:25:34.959Z,8.01
2023-03-29T08:26:34.941Z,8.33
2023-03-29T08:27:34.955Z,8.65
2023-03-29T08:28:34.902Z,12.52
2023-03-29T08:29:34.913Z,2.21
2023-03-29T08:30:34.890Z,8.65
2023-03-29T08:31:34.956Z,8.65
2023-03-29T08:32:34.873Z,4.14
2023-03-29T08:33:34.959Z,6.07
2023-03-29T08:34:34.860Z,8.01
2023-03-29T08:35:34.920Z,4.46
2023-03-29T08:36:34.839Z,8.65
2023-03-29T08:37:34.821Z,8.65
2023-03-29T08:38:34.797Z,8.01
2023-03-29T08:39:34.859Z,8.65
2023-03-29T08:40:34.800Z,8.97
2023-03-29T08:41:34.807Z,7.36
2023-03-29T08:42:34.807Z,12.20
2023-03-29T08:43:34.848Z,8.65
2023-03-29T08:44:34.729Z,13.16
2023-03-29T08:45:34.745Z,9.62
2023-03-29T08:46:35.432Z,9.30
2023-03-29T08:47:34.755Z,9.62
2023-03-29T08:48:34.688Z,9.94
2023-03-29T08:49:34.695Z,9.30
2023-03-29T08:50:34.661Z,9.30
2023-03-29T08:51:34.681Z,14.78
2023-03-29T08:52:34.644Z,8.97
2023-03-29T08:53:34.661Z,14.78
2023-03-29T08:54:34.612Z,9.94
2023-03-29T08:55:34.638Z,8.65
2023-03-29T08:56:34.593Z,10.91
2023-03-29T08:57:34.595Z,4.46
2023-03-29T08:58:34.595Z,14.78
2023-03-29T08:59:34.579Z,10.91
2023-03-29T09:00:34.548Z,9.94
2023-03-29T09:01:34.591Z,5.11
2023-03-29T09:02:34.631Z,4.79
2023-03-29T09:03:34.592Z,16.06
2023-03-29T09:04:34.517Z,13.49
2023-03-29T09:05:34.537Z,9.94
2023-03-29T09:06:34.480Z,10.26
2023-03-29T09:07:34.487Z,9.94
2023-03-29T09:08:34.460Z,10.59
2023-03-29T09:09:34.477Z,10.59
2023-03-29T09:10:34.435Z,10.91
2023-03-29T09:11:34.459Z,10.91
2023-03-29T09:12:36.485Z,5.11
2023-03-29T09:13:34.471Z,14.13
2023-03-29T09:14:34.408Z,12.52
2023-03-29T09:15:34.406Z,10.91
2023-03-29T09:16:34.451Z,16.71
2023-03-29T09:17:34.411Z,10.91
2023-03-29T09:18:34.352Z,11.23
2023-03-29T09:19:34.369Z,8.01
2023-03-29T09:20:34.337Z,10.91
2023-03-29T09:21:34.345Z,12.52
2023-03-29T09:22:34.303Z,17.03
2023-03-29T09:23:34.307Z,11.55
2023-03-29T09:24:34.287Z,13.16
2023-03-29T09:25:40.996Z,10.91
2023-03-29T09:26:34.285Z,10.91
2023-03-29T09:27:34.275Z,10.91
2023-03-29T09:28:34.237Z,10.91
2023-03-29T09:29:34.264Z,2.21
2023-03-29T09:30:34.223Z,11.23
2023-03-29T09:31:34.248Z,5.43
2023-03-29T09:32:34.203Z,10.91
2023-03-29T09:33:34.212Z,7.04
2023-03-29T09:34:34.189Z,11.23
2023-03-29T09:35:34.212Z,10.59
2023-03-29T09:36:34.164Z,11.55
2023-03-29T09:37:34.163Z,16.39
2023-03-29T09:38:34.156Z,17.35
2023-03-29T09:39:34.122Z,11.23
2023-03-29T09:40:34.145Z,9.30
2023-03-29T09:41:34.106Z,11.23
2023-03-29T09:42:34.111Z,8.97
2023-03-29T09:43:34.079Z,16.39
2023-03-29T09:44:34.092Z,11.55
2023-03-29T09:45:34.102Z,14.45
2023-03-29T09:46:34.054Z,11.55
2023-03-29T09:47:34.054Z,6.07
2023-03-29T09:48:34.035Z,11.23
2023-03-29T09:49:34.003Z,15.74
2023-03-29T09:50:34.100Z,11.23
2023-03-29T09:51:33.978Z,11.23
2023-03-29T09:52:34.008Z,11.23
2023-03-29T09:53:33.961Z,11.23
2023-03-29T09:54:33.966Z,15.42
2023-03-29T09:55:33.992Z,11.23
2023-03-29T09:56:33.958Z,7.04
2023-03-29T09:57:33.946Z,11.23
2023-03-29T09:58:33.940Z,6.72
2023-03-29T09:59:33.906Z,11.23
2023-03-29T10:00:33.917Z,11.55
2023-03-29T10:01:33.905Z,11.55
2023-03-29T10:02:33.909Z,7.04
2023-03-29T10:03:33.859Z,11.23
2023-03-29T10:04:33.900Z,11.55
2023-03-29T10:05:33.835Z,12.20
2023-03-29T10:06:33.836Z,12.20
2023-03-29T10:07:33.810Z,11.23
2023-03-29T10:08:33.824Z,11.55
2023-03-29T10:09:33.787Z,2.53
2023-03-29T10:10:33.793Z,6.07
2023-03-29T10:11:33.764Z,15.10
2023-03-29T10:12:33.770Z,16.06
2023-03-29T10:13:33.772Z,10.26
2023-03-29T10:14:33.770Z,10.91
2023-03-29T10:15:33.739Z,14.78
2023-03-29T10:16:33.765Z,11.23
2023-03-29T10:17:33.707Z,7.04
2023-03-29T10:18:33.707Z,11.23
2023-03-29T10:19:33.688Z,5.43
2023-03-29T10:20:33.699Z,5.43
2023-03-29T10:21:33.662Z,11.55
2023-03-29T10:22:33.678Z,11.55
2023-03-29T10:23:33.640Z,11.23
2023-03-29T10:24:33.651Z,11.87
2023-03-29T10:25:33.625Z,14.78
2023-03-29T10:26:33.645Z,6.40
2023-03-29T10:27:33.594Z,9.30
2023-03-29T10:28:33.593Z,11.23
2023-03-29T10:29:33.593Z,17.35
2023-03-29T10:30:33.585Z,8.65
2023-03-29T10:31:33.732Z,7.36
2023-03-29T10:32:33.698Z,11.23
2023-03-29T10:33:33.530Z,3.50
2023-03-29T10:34:33.534Z,17.35
2023-03-29T10:35:33.551Z,9.94
2023-03-29T10:36:33.508Z,19.29
2023-03-29T10:37:33.480Z,11.55
2023-03-29T10:38:33.495Z,11.87
2023-03-29T10:39:33.457Z,11.87
2023-03-29T10:40:33.505Z,12.52
2023-03-29T10:41:33.433Z,12.20
2023-03-29T10:42:33.454Z,11.87
2023-03-29T10:43:33.442Z,10.91
2023-03-29T10:44:33.494Z,11.55
2023-03-29T10:45:33.400Z,11.87
2023-03-29T10:46:33.422Z,10.59
2023-03-29T10:47:33.401Z,11.87
2023-03-29T10:48:33.386Z,12.52
2023-03-29T10:49:33.387Z,8.65
2023-03-29T10:50:33.363Z,12.20
2023-03-29T10:51:33.333Z,11.87
2023-03-29T10:52:33.344Z,22.19
2023-03-29T10:53:33.298Z,12.20
2023-03-29T10:54:33.307Z,12.20
2023-03-29T10:55:33.363Z,14.45
2023-03-29T10:56:33.313Z,16.06
2023-03-29T10:57:33.311Z,6.07
2023-03-29T10:58:33.258Z,11.55
2023-03-29T10:59:33.241Z,11.23
2023-03-29T11:00:33.254Z,21.22
2023-03-29T11:01:33.259Z,8.65
2023-03-29T11:02:33.331Z,12.20
2023-03-29T11:03:33.230Z,12.52
2023-03-29T11:04:33.207Z,12.52
2023-03-29T11:05:33.171Z,12.20
2023-03-29T11:06:33.169Z,8.01
2023-03-29T11:07:33.160Z,12.84
2023-03-29T11:08:33.170Z,10.91
2023-03-29T11:09:33.124Z,12.20
2023-03-29T11:10:33.127Z,14.78
2023-03-29T11:11:33.114Z,12.52
2023-03-29T11:12:33.142Z,12.84
2023-03-29T11:13:33.090Z,18.64
2023-03-29T11:14:33.092Z,12.84
2023-03-29T11:15:33.051Z,4.79
2023-03-29T11:16:33.084Z,13.16
2023-03-29T11:17:33.080Z,14.13
2023-03-29T11:18:33.043Z,13.49
2023-03-29T11:19:33.015Z,12.52
2023-03-29T11:20:33.031Z,12.84
2023-03-29T11:21:32.981Z,18.32
2023-03-29T11:22:32.988Z,12.52
2023-03-29T11:23:32.978Z,14.13
2023-03-29T11:24:32.972Z,13.49
2023-03-29T11:25:32.940Z,12.52
2023-03-29T11:26:32.947Z,13.16
2023-03-29T11:27:32.916Z,13.16
2023-03-29T11:28:32.936Z,13.49
2023-03-29T11:29:32.908Z,13.16
2023-03-29T11:30:32.915Z,9.94
2023-03-29T11:31:32.944Z,13.16
2023-03-29T11:32:32.902Z,17.68
2023-03-29T11:33:32.860Z,12.84
2023-03-29T11:34:32.893Z,12.52
2023-03-29T11:35:32.869Z,16.71
2023-03-29T11:36:32.855Z,9.94
2023-03-29T11:37:32.814Z,13.16
2023-03-29T11:38:32.827Z,13.81
2023-03-29T11:39:32.804Z,13.81
2023-03-29T11:40:32.824Z,9.30
2023-03-29T11:41:32.774Z,13.16
2023-03-29T11:42:32.770Z,8.97
2023-03-29T11:43:32.746Z,21.87
2023-03-29T11:44:32.753Z,13.16
2023-03-29T11:45:32.738Z,13.49
2023-03-29T11:46:32.811Z,17.35
2023-03-29T11:47:32.805Z,13.16
2023-03-29T11:48:32.703Z,13.81
2023-03-29T11:49:32.682Z,13.81
2023-03-29T11:50:35.332Z,13.81
2023-03-29T11:51:32.676Z,13.16
2023-03-29T11:52:32.724Z,13.16
2023-03-29T11:53:32.633Z,13.49
2023-03-29T11:54:32.656Z,13.81
2023-03-29T11:55:32.626Z,14.13
2023-03-29T11:56:32.623Z,18.64
2023-03-29T11:57:32.588Z,12.84
2023-03-29T11:58:33.192Z,14.45
2023-03-29T11:59:32.573Z,10.26
2023-03-29T12:00:32.600Z,10.26
2023-03-29T12:01:32.558Z,19.29
2023-03-29T12:02:32.632Z,14.13
2023-03-29T12:03:32.597Z,14.13
2023-03-29T12:04:32.625Z,20.25
2023-03-29T12:05:32.500Z,14.45
2023-03-29T12:06:32.530Z,14.45
2023-03-29T12:07:32.491Z,14.78
2023-03-29T12:08:32.490Z,8.01
2023-03-29T12:09:32.507Z,12.20
2023-03-29T12:10:33.692Z,15.42
2023-03-29T12:11:32.447Z,15.10
2023-03-29T12:12:32.457Z,15.10
2023-03-29T12:13:32.427Z,15.10
2023-03-29T12:14:32.424Z,12.20
2023-03-29T12:15:32.395Z,15.10
2023-03-29T12:16:32.502Z,14.78
2023-03-29T12:17:32.396Z,14.78
2023-03-29T12:18:32.418Z,14.45
2023-03-29T12:19:32.354Z,10.59
2023-03-29T12:20:32.369Z,17.35
2023-03-29T12:21:32.341Z,20.25
2023-03-29T12:22:32.367Z,14.78
2023-03-29T12:23:32.343Z,14.78
2023-03-29T12:24:32.334Z,14.45
2023-03-29T12:25:32.284Z,14.13
2023-03-29T12:26:32.290Z,20.58
2023-03-29T12:27:32.264Z,13.81
2023-03-29T12:28:32.264Z,23.15
2023-03-29T12:29:32.287Z,12.52
2023-03-29T12:30:34.259Z,14.45
2023-03-29T12:31:32.254Z,14.78
2023-03-29T12:32:32.276Z,17.68
2023-03-29T12:33:32.225Z,22.19
2023-03-29T12:34:32.207Z,12.20
2023-03-29T12:35:32.243Z,14.45
2023-03-29T12:36:32.162Z,13.81
2023-03-29T12:37:32.231Z,13.81
2023-03-29T12:38:32.144Z,14.78
2023-03-29T12:39:32.162Z,14.45
2023-03-29T12:40:32.130Z,14.78
2023-03-29T12:41:32.144Z,12.52
2023-03-29T12:42:32.100Z,14.78
2023-03-29T12:43:32.133Z,15.42
2023-03-29T12:44:32.204Z,14.78
2023-03-29T12:45:32.153Z,15.10
2023-03-29T12:46:32.111Z,14.45
2023-03-29T12:47:32.070Z,14.45
2023-03-29T12:48:32.041Z,14.78
2023-03-29T12:49:32.059Z,18.96
2023-03-29T12:50:32.025Z,14.45
2023-03-29T12:51:32.017Z,17.35
2023-03-29T12:52:32.002Z,14.45
2023-03-29T12:53:32.011Z,14.45
2023-03-29T12:54:31.973Z,14.13
2023-03-29T12:55:32.005Z,14.45
2023-03-29T12:56:31.949Z,18.64
2023-03-29T12:57:31.963Z,15.10
2023-03-29T12:58:31.928Z,17.68
2023-03-29T12:59:31.948Z,14.45
2023-03-29T13:00:31.929Z,14.13
2023-03-29T13:01:32.010Z,11.23
2023-03-29T13:02:32.007Z,14.45
2023-03-29T13:03:31.905Z,14.13
2023-03-29T13:04:31.878Z,13.81
2023-03-29T13:05:31.984Z,14.13
2023-03-29T13:06:31.842Z,4.14
2023-03-29T13:07:31.902Z,6.40
2023-03-29T13:08:31.828Z,14.45